Time;durP1;ratioP1;P1;durP2;ratioP2;P2;SDS_P1;SDS_P2;PMS_P1;PMS_P2;Temp;Humidity;BMP_temperature;BMP_pressure;BME280_temperature;BME280_humidity;BME280_pressure;Samples;Min_cycle;Max_cycle;Signal;HPM_P1;HPM_P2
2024/02/05 00:01:49;;;;;;;4.70;2.70;;;;;;;23.37;28.84;100612.77;105293;1285;60565;-82
2024/02/05 00:04:15;;;;;;;4.20;2.60;;;;;;;23.37;28.76;100609.91;105092;1283;60382;-81
2024/02/05 00:06:41;;;;;;;4.10;2.60;;;;;;;23.37;28.78;100601.96;105077;1283;60594;-82
2024/02/05 00:09:07;;;;;;;4.80;2.90;;;;;;;23.37;28.74;100602.70;105111;1283;60319;-81
2024/02/05 00:11:34;;;;;;;5.30;2.70;;;;;;;23.37;28.73;100600.72;105148;1283;60594;-81
2024/02/05 00:14:00;;;;;;;5.10;2.70;;;;;;;23.38;28.68;100592.97;105000;1283;60615;-81
2024/02/05 00:16:25;;;;;;;4.30;2.70;;;;;;;23.38;28.77;100588.13;104929;1283;60453;-81
2024/02/05 00:18:52;;;;;;;4.70;2.90;;;;;;;23.38;28.78;100585.06;105041;1285;60550;-81
2024/02/05 00:21:17;;;;;;;4.40;2.80;;;;;;;23.38;28.76;100585.27;105033;1283;73575;-82
2024/02/05 00:23:43;;;;;;;4.50;2.70;;;;;;;23.37;28.74;100589.23;105232;1283;60775;-81
2024/02/05 00:26:09;;;;;;;4.50;2.80;;;;;;;23.38;28.67;100585.27;105216;1283;60551;-80
2024/02/05 00:28:37;;;;;;;4.50;2.70;;;;;;;23.38;28.72;100586.11;105250;1283;59254;-82
2024/02/05 00:31:05;;;;;;;4.30;2.60;;;;;;;23.38;28.77;100588.84;105328;1283;73726;-81
2024/02/05 00:33:31;;;;;;;4.80;3.00;;;;;;;23.38;28.66;100579.80;105192;1287;60530;-81
2024/02/05 00:35:57;;;;;;;3.90;2.70;;;;;;;23.38;28.65;100575.66;105125;1283;60502;-82
2024/02/05 00:38:22;;;;;;;4.30;2.80;;;;;;;23.39;28.73;100562.33;105304;1287;60608;-82
2024/02/05 00:40:48;;;;;;;3.60;2.60;;;;;;;23.39;28.78;100558.56;105044;1285;60633;-81
2024/02/05 00:43:14;;;;;;;4.00;2.70;;;;;;;23.39;28.66;100551.17;105143;1283;59713;-82
2024/02/05 00:45:40;;;;;;;4.40;2.90;;;;;;;23.39;28.74;100544.39;105018;1283;60326;-81
2024/02/05 00:48:06;;;;;;;3.90;2.50;;;;;;;23.39;28.71;100538.95;105091;1283;61011;-81
2024/02/05 00:50:32;;;;;;;4.70;2.60;;;;;;;23.40;28.76;100536.94;105146;1283;60452;-81
2024/02/05 00:52:57;;;;;;;4.00;2.60;;;;;;;23.40;28.71;100525.42;105071;1283;60525;-81
2024/02/05 00:55:24;;;;;;;4.10;2.90;;;;;;;23.40;28.76;100516.63;105161;1284;59367;-81
2024/02/05 00:57:49;;;;;;;4.60;2.70;;;;;;;23.40;28.74;100514.08;105101;1283;59102;-83
2024/02/05 01:00:19;;;;;;;4.10;2.60;;;;;;;23.40;28.70;100511.23;105195;1283;60505;-82
2024/02/05 01:02:44;;;;;;;5.80;2.90;;;;;;;23.41;28.69;100506.52;104983;1283;61356;-82
2024/02/05 01:05:10;;;;;;;3.90;2.30;;;;;;;23.41;28.74;100501.87;104912;1284;60516;-82
2024/02/05 01:07:36;;;;;;;4.70;2.70;;;;;;;23.41;28.76;100504.16;104983;1285;60548;-80
2024/02/05 01:10:02;;;;;;;3.90;2.80;;;;;;;23.40;28.71;100499.35;105070;1283;59317;-80
2024/02/05 01:12:28;;;;;;;4.10;2.50;;;;;;;23.41;28.72;100495.89;105174;1285;60498;-80
2024/02/05 01:14:53;;;;;;;3.70;2.30;;;;;;;23.41;28.72;100489.05;105067;1283;59295;-80
2024/02/05 01:17:19;;;;;;;4.20;2.30;;;;;;;23.41;28.78;100487.41;105135;1283;60578;-81
2024/02/05 01:19:48;;;;;;;3.60;2.40;;;;;;;23.42;28.69;100478.06;105157;1283;60953;-80
2024/02/05 01:22:15;;;;;;;3.50;2.40;;;;;;;23.42;28.76;100480.55;105266;1285;72603;-81
2024/02/05 01:24:40;;;;;;;3.50;2.30;;;;;;;23.42;28.76;100476.44;105118;1284;73462;-81
2024/02/05 01:27:07;;;;;;;4.20;2.60;;;;;;;23.42;28.76;100468.52;105237;1283;60506;-81
2024/02/05 01:29:33;;;;;;;4.00;2.40;;;;;;;23.42;28.75;100465.64;105103;1283;60565;-80
2024/02/05 01:31:58;;;;;;;3.30;2.30;;;;;;;23.42;28.73;100460.03;105146;1285;60622;-81
2024/02/05 01:34:25;;;;;;;3.90;2.30;;;;;;;23.42;28.77;100456.63;105198;1283;60531;-81
2024/02/05 01:36:50;;;;;;;3.80;2.50;;;;;;;23.43;28.76;100456.05;104923;1283;60356;-81
2024/02/05 01:39:18;;;;;;;3.90;2.50;;;;;;;23.43;28.73;100456.03;105012;1284;60584;-81
2024/02/05 01:41:44;;;;;;;4.90;2.40;;;;;;;23.43;28.71;100458.58;105173;1285;60509;-80
2024/02/05 01:44:10;;;;;;;4.10;2.40;;;;;;;23.43;28.75;100453.52;104990;1289;60566;-81
2024/02/05 01:46:38;;;;;;;3.60;2.30;;;;;;;23.43;28.70;100460.52;105183;1288;59294;-81
2024/02/05 01:49:07;;;;;;;3.80;2.30;;;;;;;23.43;28.72;100465.19;105143;1283;60589;-81
2024/02/05 01:51:36;;;;;;;3.80;2.30;;;;;;;23.43;28.79;100467.17;105016;1283;71302;-81
2024/02/05 01:54:02;;;;;;;3.90;2.40;;;;;;;23.43;28.76;100464.11;105133;1283;73513;-81
2024/02/05 01:56:32;;;;;;;4.80;2.50;;;;;;;23.43;28.69;100466.41;105160;1285;60588;-81
2024/02/05 01:58:59;;;;;;;3.60;2.30;;;;;;;23.44;28.78;100458.50;105060;1283;60582;-81
2024/02/05 02:01:37;;;;;;;3.90;2.40;;;;;;;23.43;28.75;100454.39;104998;1285;72458;-81
2024/02/05 02:04:05;;;;;;;3.60;2.10;;;;;;;23.43;28.78;100457.59;104911;1285;60464;-81
2024/02/05 02:06:30;;;;;;;3.60;2.20;;;;;;;23.44;28.77;100444.09;104937;1283;60448;-81
2024/02/05 02:08:56;;;;;;;3.50;2.20;;;;;;;23.45;28.71;100449.63;105119;1285;60463;-81
2024/02/05 02:11:22;;;;;;;4.60;2.10;;;;;;;23.44;28.69;100436.35;105039;1285;60432;-81
2024/02/05 02:13:48;;;;;;;3.50;2.20;;;;;;;23.44;28.77;100427.36;105014;1283;60596;-81
2024/02/05 02:16:19;;;;;;;3.40;2.10;;;;;;;23.45;28.72;100430.17;105106;1284;60697;-81
2024/02/05 02:18:48;;;;;;;3.80;2.40;;;;;;;23.45;28.75;100433.95;105177;1283;60479;-81
2024/02/05 02:21:14;;;;;;;3.60;2.30;;;;;;;23.45;28.70;100439.73;105204;1283;72605;-82
2024/02/05 02:23:43;;;;;;;3.40;2.30;;;;;;;23.45;28.78;100435.57;105276;1283;73730;-82
2024/02/05 02:26:13;;;;;;;4.20;2.20;;;;;;;23.45;28.76;100435.17;104968;1283;60531;-81
2024/02/05 02:28:39;;;;;;;3.60;2.30;;;;;;;23.46;28.77;100430.67;105076;1284;60600;-81
2024/02/05 02:31:05;;;;;;;3.60;2.40;;;;;;;23.47;28.75;100426.66;105096;1285;61125;-81
2024/02/05 02:34:09;;;;;;;3.70;2.40;;;;;;;23.46;28.73;100421.50;105055;1284;60530;-82
2024/02/05 02:36:39;;;;;;;4.50;2.40;;;;;;;23.45;28.76;100418.88;105096;1286;59976;-82
2024/02/05 02:39:26;;;;;;;3.40;2.10;;;;;;;23.46;28.68;100411.61;104791;1285;60525;-82
2024/02/05 02:41:51;;;;;;;3.30;2.10;;;;;;;23.46;28.66;100413.90;105121;1286;72465;-82
2024/02/05 02:44:17;;;;;;;3.60;2.40;;;;;;;23.46;28.68;100409.25;105103;1285;60549;-81
2024/02/05 02:46:43;;;;;;;3.80;2.00;;;;;;;23.46;28.78;100413.01;105060;1285;61062;-82
2024/02/05 02:49:09;;;;;;;3.10;2.00;;;;;;;23.47;28.78;100416.40;105090;1285;60734;-82
2024/02/05 02:51:35;;;;;;;3.90;2.20;;;;;;;23.47;28.77;100408.06;104963;1288;60524;-81
2024/02/05 02:54:02;;;;;;;3.80;2.30;;;;;;;23.48;28.70;100411.64;105073;1283;60579;-82
2024/02/05 02:56:29;;;;;;;4.20;2.60;;;;;;;23.48;28.80;100408.21;105163;1284;60398;-81
2024/02/05 02:58:56;;;;;;;3.70;2.10;;;;;;;23.48;28.76;100397.09;105041;1283;60430;-81
2024/02/05 03:01:23;;;;;;;3.30;2.00;;;;;;;23.48;28.75;100398.48;105030;1285;60493;-83
2024/02/05 03:03:48;;;;;;;4.50;2.10;;;;;;;23.48;28.75;100397.58;105010;1285;60638;-82
2024/02/05 03:06:14;;;;;;;3.70;2.40;;;;;;;23.49;28.78;100391.80;105042;1283;60526;-83
2024/02/05 03:08:40;;;;;;;3.70;2.30;;;;;;;23.49;28.75;100397.86;104934;1284;60534;-83
2024/02/05 03:11:06;;;;;;;3.40;2.10;;;;;;;23.49;28.68;100395.17;105122;1287;61037;-82
2024/02/05 03:13:32;;;;;;;3.40;2.20;;;;;;;23.49;28.69;100400.37;105048;1285;72451;-80
2024/02/05 03:15:58;;;;;;;3.30;2.00;;;;;;;23.49;28.68;100398.58;105104;1285;61021;-82
2024/02/05 03:18:24;;;;;;;4.10;2.20;;;;;;;23.49;28.72;100397.50;105148;1283;60576;-83
2024/02/05 03:20:49;;;;;;;4.00;2.20;;;;;;;23.49;28.77;100396.76;105045;1283;60605;-82
2024/02/05 03:23:16;;;;;;;3.60;2.20;;;;;;;23.50;28.73;100391.69;105040;1285;60621;-82
2024/02/05 03:25:42;;;;;;;3.80;2.00;;;;;;;23.50;28.74;100390.25;105072;1283;60453;-82
2024/02/05 03:28:08;;;;;;;3.60;2.00;;;;;;;23.50;28.72;100388.27;105017;1283;60621;-80
2024/02/05 03:30:34;;;;;;;4.00;2.20;;;;;;;23.51;28.78;100383.90;105050;1284;60546;-80
2024/02/05 03:33:01;;;;;;;3.30;2.20;;;;;;;23.50;28.78;100382.31;105061;1285;60517;-80
2024/02/05 03:35:26;;;;;;;3.60;2.20;;;;;;;23.50;28.80;100383.38;105244;1284;73650;-81
2024/02/05 03:37:53;;;;;;;3.80;2.20;;;;;;;23.51;28.77;100381.88;104907;1283;60529;-80
2024/02/05 03:40:22;;;;;;;3.70;2.40;;;;;;;23.52;28.72;100389.54;105153;1283;60468;-81
2024/02/05 03:42:51;;;;;;;3.70;2.30;;;;;;;23.51;28.63;100381.68;105033;1283;60572;-81
2024/02/05 03:45:17;;;;;;;;;;;;;;;23.52;28.78;100387.39;105249;1285;72453;-81
2024/02/05 03:47:44;;;;;;;3.00;1.90;;;;;;;23.48;28.78;100381.05;104937;1285;60471;-81
2024/02/05 03:50:10;;;;;;;3.10;2.10;;;;;;;23.50;28.78;100388.63;105044;1285;60445;-81
2024/02/05 03:52:44;;;;;;;3.20;2.00;;;;;;;23.50;28.81;100377.48;105178;1284;61027;-80
2024/02/05 03:55:10;;;;;;;3.50;1.90;;;;;;;23.50;28.79;100365.66;105146;1286;72850;-81
2024/02/05 03:57:44;;;;;;;4.40;2.30;;;;;;;23.51;28.79;100371.85;105133;1285;60403;-81
2024/02/05 04:00:11;;;;;;;3.50;2.20;;;;;;;23.51;28.79;100368.61;105059;1285;60448;-81
2024/02/05 04:02:38;;;;;;;3.20;2.10;;;;;;;23.51;28.81;100371.50;105134;1284;60504;-82
2024/02/05 04:05:08;;;;;;;3.60;2.20;;;;;;;23.51;28.72;100367.00;105003;1285;72568;-81
2024/02/05 04:07:34;;;;;;;3.10;1.90;;;;;;;23.51;28.73;100358.72;105178;1285;73487;-82
2024/02/05 04:10:00;;;;;;;3.00;2.10;;;;;;;23.51;28.80;100360.87;105153;1285;60578;-81
2024/02/05 04:12:26;;;;;;;4.00;2.20;;;;;;;23.52;28.79;100363.68;105230;1284;60375;-81
2024/02/05 04:14:52;;;;;;;3.40;2.00;;;;;;;23.51;28.74;100361.18;105167;1283;60513;-81
2024/02/05 04:17:18;;;;;;;4.20;2.50;;;;;;;23.51;28.77;100361.77;105325;1287;60576;-81
2024/02/05 04:19:44;;;;;;;4.10;2.10;;;;;;;23.52;28.82;100364.76;105241;1283;60596;-80
2024/02/05 04:22:19;;;;;;;2.70;1.80;;;;;;;23.52;28.83;100364.53;105302;1287;60403;-80
2024/02/05 04:24:44;;;;;;;3.80;2.20;;;;;;;23.53;28.77;100367.36;105143;1285;72415;-81
2024/02/05 04:27:10;;;;;;;3.60;1.90;;;;;;;23.52;28.78;100364.14;105165;1285;60406;-81
2024/02/05 04:29:36;;;;;;;3.90;2.10;;;;;;;23.53;28.71;100360.17;105153;1285;58222;-82
2024/02/05 04:32:02;;;;;;;3.70;1.90;;;;;;;23.53;28.74;100369.48;105230;1288;60791;-82
2024/02/05 04:34:28;;;;;;;3.70;2.10;;;;;;;23.54;28.72;100366.58;105148;1288;60622;-81
2024/02/05 04:36:55;;;;;;;3.10;1.90;;;;;;;23.54;28.75;100370.15;105352;1283;60604;-82
2024/02/05 04:39:21;;;;;;;3.70;2.00;;;;;;;23.54;28.87;100374.84;105189;1285;60577;-81
2024/02/05 04:41:48;;;;;;;5.30;2.20;;;;;;;23.54;28.84;100376.26;105130;1284;59295;-81
2024/02/05 04:44:16;;;;;;;3.10;1.90;;;;;;;23.54;28.85;100373.73;105211;1285;60461;-80
2024/02/05 04:46:42;;;;;;;3.90;2.20;;;;;;;23.54;28.95;100363.70;105374;1285;60520;-81
2024/02/05 04:49:08;;;;;;;4.20;2.10;;;;;;;23.54;28.94;100353.62;105152;1283;60647;-82
2024/02/05 04:51:34;;;;;;;4.30;1.90;;;;;;;23.54;28.87;100350.22;105161;1285;60564;-82
2024/02/05 04:53:59;;;;;;;3.50;2.20;;;;;;;23.53;28.96;100349.20;105365;1285;60509;-80
2024/02/05 04:56:25;;;;;;;3.70;2.10;;;;;;;23.53;28.93;100349.19;105173;1285;60518;-81
2024/02/05 04:58:52;;;;;;;4.40;2.10;;;;;;;23.53;28.87;100346.73;105243;1283;73632;-81
2024/02/05 05:01:21;;;;;;;4.30;2.10;;;;;;;23.53;28.80;100344.20;105154;1287;60379;-81
2024/02/05 05:03:47;;;;;;;3.50;2.10;;;;;;;23.52;28.89;100342.79;105138;1287;60514;-81
2024/02/05 05:06:12;;;;;;;4.70;2.10;;;;;;;23.53;28.85;100344.73;105301;1285;60478;-81
2024/02/05 05:08:38;;;;;;;3.50;2.20;;;;;;;23.52;28.79;100349.25;105101;1285;59303;-81
2024/02/05 05:11:04;;;;;;;6.60;2.40;;;;;;;23.52;28.78;100356.27;105203;1285;60363;-79
2024/02/05 05:13:30;;;;;;;3.60;2.10;;;;;;;23.53;28.76;100362.89;105234;1287;60575;-80
2024/02/05 05:15:56;;;;;;;4.40;2.20;;;;;;;23.52;28.90;100362.61;105288;1283;60633;-80
2024/02/05 05:18:22;;;;;;;4.20;2.50;;;;;;;23.52;28.72;100365.48;105103;1283;72435;-81
2024/02/05 05:20:48;;;;;;;4.40;2.50;;;;;;;23.51;28.80;100359.77;105357;1285;60338;-80
2024/02/05 05:23:17;;;;;;;3.60;2.30;;;;;;;23.52;28.88;100360.96;105386;1285;60510;-79
2024/02/05 05:25:42;;;;;;;3.10;2.10;;;;;;;23.52;28.79;100363.69;105250;1283;60478;-81
2024/02/05 05:28:08;;;;;;;3.40;2.10;;;;;;;23.51;28.68;100363.41;105244;1283;60450;-81
2024/02/05 05:30:34;;;;;;;3.70;2.40;;;;;;;23.50;28.64;100361.30;105391;1284;60563;-81
2024/02/05 05:33:00;;;;;;;4.80;2.30;;;;;;;23.51;28.76;100359.63;105405;1283;60494;-80
2024/02/05 05:35:25;;;;;;;3.80;2.50;;;;;;;23.51;28.64;100357.64;105374;1282;60459;-80
2024/02/05 05:37:51;;;;;;;3.50;2.30;;;;;;;23.52;28.64;100360.08;105466;1285;60551;-81
2024/02/05 05:40:17;;;;;;;3.60;2.20;;;;;;;23.52;28.67;100359.20;105199;1285;72263;-81
2024/02/05 05:42:42;;;;;;;3.70;2.30;;;;;;;23.51;28.58;100357.08;105404;1288;60554;-81
2024/02/05 05:45:08;;;;;;;4.10;2.40;;;;;;;23.51;28.57;100361.75;105328;1283;60542;-80
2024/02/05 05:47:34;;;;;;;4.80;2.30;;;;;;;23.51;28.63;100370.89;105711;1283;58573;-81
2024/02/05 05:49:59;;;;;;;4.70;2.30;;;;;;;23.52;28.48;100381.23;105371;1284;60444;-81
2024/02/05 05:52:27;;;;;;;3.50;2.30;;;;;;;23.52;28.58;100376.98;105582;1285;60503;-80
2024/02/05 05:54:54;;;;;;;3.80;2.40;;;;;;;23.52;28.61;100370.27;105459;1283;73808;-81
2024/02/05 05:57:20;;;;;;;3.90;2.30;;;;;;;23.52;28.44;100370.63;105372;1285;60338;-81
2024/02/05 05:59:45;;;;;;;4.50;2.30;;;;;;;23.52;28.44;100364.77;105495;1285;60505;-81
2024/02/05 06:02:11;;;;;;;3.60;2.20;;;;;;;23.53;28.37;100375.08;105374;1288;60414;-81
2024/02/05 06:04:38;;;;;;;3.70;2.30;;;;;;;23.52;28.37;100371.88;105609;1283;59308;-81
2024/02/05 06:07:08;;;;;;;3.90;2.00;;;;;;;23.52;28.34;100369.02;105310;1285;60710;-80
2024/02/05 06:09:35;;;;;;;3.50;2.40;;;;;;;23.53;28.35;100363.59;105530;1285;60325;-81
2024/02/05 06:12:04;;;;;;;6.20;2.10;;;;;;;23.53;28.42;100358.75;105526;1285;72513;-79
2024/02/05 06:14:30;;;;;;;3.70;2.10;;;;;;;23.53;28.37;100372.54;105315;1285;73795;-80
2024/02/05 06:16:55;;;;;;;4.30;2.30;;;;;;;23.53;28.42;100368.92;105445;1283;59146;-81
2024/02/05 06:19:21;;;;;;;4.00;2.20;;;;;;;23.53;28.25;100372.40;105473;1285;60429;-80
2024/02/05 06:21:47;;;;;;;4.20;2.20;;;;;;;23.53;28.32;100373.44;105364;1285;60489;-80
2024/02/05 06:24:14;;;;;;;4.00;2.60;;;;;;;23.53;28.28;100376.16;105635;1283;58192;-82
2024/02/05 06:26:41;;;;;;;;;;;;;;;23.53;28.20;100366.77;105217;1288;60490;-81
2024/02/05 06:29:07;;;;;;;4.70;2.40;;;;;;;23.50;28.22;100369.23;105228;1283;60556;-82
2024/02/05 06:31:33;;;;;;;3.80;2.40;;;;;;;23.51;28.29;100363.38;105153;1284;60514;-80
2024/02/05 06:33:58;;;;;;;4.20;2.40;;;;;;;23.51;28.25;100354.18;105282;1285;60459;-80
2024/02/05 06:36:24;;;;;;;4.10;2.30;;;;;;;23.52;28.21;100353.27;105254;1282;60436;-81
2024/02/05 06:38:50;;;;;;;5.30;2.40;;;;;;;23.52;28.18;100356.99;105187;1284;60487;-81
2024/02/05 06:41:16;;;;;;;4.70;2.30;;;;;;;23.52;28.26;100362.90;105191;1284;60522;-80
2024/02/05 06:43:41;;;;;;;4.40;2.30;;;;;;;23.53;28.24;100358.55;105354;1283;59385;-81
2024/02/05 06:46:08;;;;;;;7.40;2.40;;;;;;;23.53;28.16;100349.93;105239;1287;60515;-81
2024/02/05 06:48:36;;;;;;;4.00;2.40;;;;;;;23.55;28.04;100354.07;105146;1283;60577;-81
2024/02/05 06:51:02;;;;;;;4.30;2.50;;;;;;;23.55;28.26;100361.20;105204;1283;60400;-81
2024/02/05 06:53:28;;;;;;;3.90;2.00;;;;;;;23.55;28.23;100363.73;105177;1289;60626;-81
2024/02/05 06:55:54;;;;;;;4.00;2.40;;;;;;;23.56;28.24;100369.95;105199;1285;60491;-81
2024/02/05 06:58:19;;;;;;;4.50;2.30;;;;;;;23.56;28.22;100370.88;105217;1285;60579;-81
2024/02/05 07:00:46;;;;;;;4.20;2.50;;;;;;;23.57;28.15;100356.41;105127;1285;60616;-81
2024/02/05 07:03:12;;;;;;;5.70;2.80;;;;;;;23.57;28.16;100345.63;105041;1283;59220;-80
2024/02/05 07:05:38;;;;;;;3.70;2.30;;;;;;;23.56;28.17;100347.27;105102;1288;60493;-81
2024/02/05 07:08:04;;;;;;;4.80;2.20;;;;;;;23.57;28.13;100350.08;105644;1287;59347;-80
2024/02/05 07:10:30;;;;;;;5.60;2.60;;;;;;;23.58;28.14;100353.80;105556;1284;60535;-81
2024/02/05 07:12:56;;;;;;;4.40;2.40;;;;;;;23.58;28.09;100356.65;105720;1283;60439;-81
2024/02/05 07:15:21;;;;;;;8.00;2.90;;;;;;;23.60;28.19;100359.71;105730;1282;61224;-81
2024/02/05 07:17:47;;;;;;;4.60;2.60;;;;;;;23.61;28.14;100352.41;105639;1288;60595;-82
2024/02/05 07:20:13;;;;;;;7.00;2.30;;;;;;;23.62;28.16;100348.60;105315;1284;59298;-82
2024/02/05 07:22:39;;;;;;;5.40;2.40;;;;;;;23.62;28.17;100351.98;105398;1286;60036;-80
2024/02/05 07:25:06;;;;;;;5.70;2.60;;;;;;;23.63;27.98;100359.66;105159;1284;60476;-82
2024/02/05 07:27:33;;;;;;;3.80;2.40;;;;;;;23.63;28.02;100364.67;105219;1288;60583;-81
2024/02/05 07:29:59;;;;;;;4.70;2.50;;;;;;;23.64;28.00;100367.13;105259;1285;73552;-78
2024/02/05 07:32:25;;;;;;;3.90;2.40;;;;;;;23.64;28.08;100371.97;105067;1288;60666;-79
2024/02/05 07:34:52;;;;;;;5.40;2.60;;;;;;;23.64;28.00;100367.10;105330;1285;60481;-79
2024/02/05 07:37:17;;;;;;;3.70;2.20;;;;;;;23.64;27.89;100367.98;105233;1285;60608;-80
2024/02/05 07:39:43;;;;;;;4.20;2.30;;;;;;;23.65;28.00;100364.00;105341;1285;58491;-80
2024/02/05 07:42:09;;;;;;;4.10;2.40;;;;;;;23.65;28.00;100366.50;105321;1283;61170;-79
2024/02/05 07:44:34;;;;;;;4.90;2.60;;;;;;;23.65;27.99;100360.35;105390;1283;60489;-81
2024/02/05 07:47:00;;;;;;;5.80;2.70;;;;;;;23.65;27.91;100356.41;105477;1285;59542;-79
2024/02/05 07:49:27;;;;;;;4.00;2.40;;;;;;;23.65;27.90;100349.95;105277;1283;72430;-80
2024/02/05 07:51:54;;;;;;;3.60;2.40;;;;;;;23.66;27.94;100352.75;105130;1286;60395;-81
2024/02/05 07:54:19;;;;;;;6.80;2.90;;;;;;;23.66;27.87;100361.71;105295;1285;60578;-80
2024/02/05 07:56:45;;;;;;;4.70;2.50;;;;;;;23.66;27.94;100361.52;105559;1283;60559;-80
2024/02/05 07:59:11;;;;;;;6.40;3.30;;;;;;;23.67;27.97;100361.80;105173;1290;60511;-80
2024/02/05 08:01:37;;;;;;;5.20;2.50;;;;;;;23.67;27.93;100363.21;105248;1283;60589;-81
2024/02/05 08:04:04;;;;;;;4.50;2.90;;;;;;;23.68;28.00;100363.67;105010;1288;60413;-79
2024/02/05 08:06:30;;;;;;;5.10;2.80;;;;;;;23.69;27.87;100372.06;104792;1288;763676;-79
2024/02/05 08:08:56;;;;;;;6.00;3.00;;;;;;;23.69;27.91;100364.11;105536;1288;60456;-81
2024/02/05 08:11:24;;;;;;;4.30;2.50;;;;;;;23.70;27.88;100359.23;105448;1283;58280;-81
2024/02/05 08:13:50;;;;;;;4.80;2.80;;;;;;;23.70;27.88;100355.05;105491;1285;59152;-81
2024/02/05 08:16:16;;;;;;;4.50;2.70;;;;;;;23.71;27.86;100355.15;105328;1288;60688;-81
2024/02/05 08:18:42;;;;;;;4.60;2.70;;;;;;;23.71;27.82;100361.77;105357;1283;60610;-80
2024/02/05 08:21:07;;;;;;;4.10;2.40;;;;;;;23.72;27.91;100359.74;105199;1285;60466;-80
2024/02/05 08:23:34;;;;;;;4.90;2.70;;;;;;;23.73;27.87;100360.73;105160;1283;72800;-82
2024/02/05 08:26:00;;;;;;;4.50;2.40;;;;;;;23.73;27.85;100361.45;105510;1283;60233;-81
2024/02/05 08:28:26;;;;;;;4.30;2.60;;;;;;;23.73;27.79;100359.06;105308;1285;60403;-80
2024/02/05 08:30:51;;;;;;;3.90;2.40;;;;;;;23.74;27.79;100356.52;104774;1285;60442;-79
2024/02/05 08:33:17;;;;;;;6.40;2.60;;;;;;;23.74;27.90;100364.75;104735;1283;60575;-82
2024/02/05 08:36:16;;;;;;;4.70;2.80;;;;;;;23.73;27.77;100371.48;104570;1287;60448;-81
2024/02/05 08:39:14;;;;;;;4.50;2.60;;;;;;;23.73;27.85;100377.23;104865;1283;60426;-80
2024/02/05 08:42:12;;;;;;;4.20;2.30;;;;;;;23.72;27.77;100378.04;105741;1285;71342;-82
2024/02/05 08:45:10;;;;;;;5.40;3.00;;;;;;;23.71;27.80;100388.40;105610;1283;72911;-82
2024/02/05 08:48:08;;;;;;;5.60;2.60;;;;;;;23.71;27.88;100393.42;105743;1283;61233;-83
2024/02/05 08:51:06;;;;;;;4.00;2.30;;;;;;;23.70;27.91;100390.77;105716;1283;60473;-82
2024/02/05 08:54:04;;;;;;;4.20;2.50;;;;;;;23.70;27.92;100394.05;105424;1283;74471;-82
2024/02/05 08:57:08;;;;;;;4.80;2.40;;;;;;;23.70;27.97;100393.16;105609;1283;73532;-82
2024/02/05 09:00:09;;;;;;;6.50;2.50;;;;;;;23.69;27.96;100386.74;105836;1283;60349;-83
2024/02/05 09:02:36;;;;;;;5.60;2.60;;;;;;;23.69;27.96;100386.23;105654;1283;60350;-81
2024/02/05 09:05:04;;;;;;;5.80;2.50;;;;;;;23.67;28.04;100387.44;105376;1283;72488;-80
2024/02/05 09:07:30;;;;;;;4.80;2.50;;;;;;;23.67;28.07;100380.49;104873;1288;60407;-81
2024/02/05 09:09:56;;;;;;;4.70;2.60;;;;;;;23.66;27.92;100378.25;104561;1288;60588;-82
2024/02/05 09:12:22;;;;;;;5.00;2.60;;;;;;;23.64;28.05;100380.74;104732;1285;60352;-81
2024/02/05 09:14:50;;;;;;;4.90;2.60;;;;;;;23.63;28.16;100379.23;104597;1288;60576;-80
2024/02/05 09:17:24;;;;;;;5.20;2.40;;;;;;;23.60;28.13;100376.39;104326;1287;73588;-79
2024/02/05 09:19:50;;;;;;;4.20;2.50;;;;;;;23.58;28.13;100377.48;104218;1285;60581;-79
2024/02/05 09:22:16;;;;;;;4.90;2.40;;;;;;;23.55;28.21;100372.88;104168;1289;60567;-78
2024/02/05 09:24:44;;;;;;;7.50;2.50;;;;;;;23.53;28.25;100372.34;104402;1288;71989;-81
2024/02/05 09:27:10;;;;;;;6.30;2.40;;;;;;;23.51;28.36;100371.09;104838;1283;60593;-81
2024/02/05 09:29:38;;;;;;;3.90;2.30;;;;;;;23.49;28.28;100366.40;104843;1283;60546;-81
2024/02/05 09:32:08;;;;;;;5.60;2.50;;;;;;;23.48;28.31;100364.55;105047;1285;60583;-80
2024/02/05 09:34:35;;;;;;;5.70;2.70;;;;;;;23.46;28.33;100358.66;105291;1290;59204;-79
2024/02/05 09:37:05;;;;;;;4.70;2.40;;;;;;;23.44;28.38;100351.40;105641;1286;73492;-80
2024/02/05 09:39:32;;;;;;;4.00;2.30;;;;;;;23.43;28.36;100351.53;105613;1283;60250;-79
2024/02/05 09:42:02;;;;;;;5.40;2.30;;;;;;;23.43;28.44;100341.13;105793;1283;60066;-79
2024/02/05 09:44:28;;;;;;;4.70;2.40;;;;;;;23.41;28.43;100335.48;105425;1289;72675;-80
2024/02/05 09:46:55;;;;;;;5.50;2.50;;;;;;;23.41;28.54;100325.46;105792;1283;59291;-80
2024/02/05 09:49:21;;;;;;;4.70;2.50;;;;;;;23.40;28.51;100324.85;105268;1285;59246;-82
2024/02/05 09:51:47;;;;;;;3.80;2.30;;;;;;;23.39;28.45;100327.45;105257;1289;60668;-83
2024/02/05 09:54:16;;;;;;;5.00;2.40;;;;;;;23.38;28.50;100324.45;105114;1286;60458;-82
2024/02/05 09:56:42;;;;;;;5.30;2.30;;;;;;;23.37;28.54;100310.89;105062;1286;73640;-81
2024/02/05 09:59:09;;;;;;;4.60;2.40;;;;;;;23.36;28.49;100307.77;105206;1283;60572;-82
2024/02/05 10:01:35;;;;;;;3.70;2.10;;;;;;;23.35;28.67;100298.74;105180;1285;60622;-82
2024/02/05 10:04:01;;;;;;;3.80;2.10;;;;;;;23.34;28.68;100305.09;105337;1286;59970;-80
2024/02/05 10:06:31;;;;;;;4.20;2.40;;;;;;;23.32;28.75;100296.10;105402;1282;61338;-79
2024/02/05 10:09:00;;;;;;;4.60;2.60;;;;;;;23.31;28.65;100297.30;105904;1288;60464;-80
2024/02/05 10:11:25;;;;;;;4.20;2.20;;;;;;;23.30;28.77;100302.20;105875;1283;61100;-80
2024/02/05 10:13:52;;;;;;;4.10;2.50;;;;;;;23.29;28.81;100299.23;105668;1282;72471;-81
2024/02/05 10:16:18;;;;;;;4.10;2.60;;;;;;;23.29;28.84;100300.00;105452;1285;60624;-80
2024/02/05 10:18:44;;;;;;;4.40;2.20;;;;;;;23.28;28.80;100288.01;105973;1286;59282;-81
2024/02/05 10:21:09;;;;;;;4.90;2.50;;;;;;;23.27;28.78;100284.66;105909;1283;60588;-82
2024/02/05 10:23:35;;;;;;;5.20;2.30;;;;;;;23.26;28.81;100283.33;105955;1283;60543;-82
2024/02/05 10:26:05;;;;;;;3.60;2.30;;;;;;;23.26;28.82;100284.80;105989;1282;60344;-83
2024/02/05 10:28:31;;;;;;;3.50;2.10;;;;;;;23.24;28.85;100283.63;106064;1282;73708;-80
2024/02/05 10:31:22;;;;;;;;;;;;;;;;;;;;;
2024/02/05 10:33:46;;;;;;;6.80;2.50;;;;;;;23.18;29.00;100270.73;105637;1287;60359;-80
2024/02/05 10:36:14;;;;;;;9.40;2.70;;;;;;;23.16;28.98;100266.64;105923;1286;60520;-81
2024/02/05 10:38:39;;;;;;;5.80;2.60;;;;;;;23.15;28.95;100266.16;105685;1288;73503;-80
2024/02/05 10:41:05;;;;;;;4.50;2.50;;;;;;;23.13;29.00;100268.84;105710;1287;60560;-82
2024/02/05 10:43:31;;;;;;;4.80;2.50;;;;;;;23.12;28.93;100263.73;105710;1287;60392;-82
2024/02/05 10:45:58;;;;;;;4.60;2.40;;;;;;;23.11;28.98;100253.42;105461;1286;60625;-82
2024/02/05 10:48:24;;;;;;;6.50;2.30;;;;;;;23.10;29.01;100250.10;105549;1286;60555;-81
2024/02/05 10:50:50;;;;;;;5.00;2.30;;;;;;;23.09;28.96;100244.94;105645;1286;58897;-80
2024/02/05 10:53:17;;;;;;;4.10;2.20;;;;;;;23.08;28.89;100236.97;105631;1288;58276;-79
2024/02/05 10:55:47;;;;;;;5.10;2.20;;;;;;;23.07;28.87;100237.03;105738;1286;60559;-83
2024/02/05 10:58:16;;;;;;;5.70;2.20;;;;;;;23.07;28.90;100237.42;105702;1288;73739;-80
2024/02/05 11:00:41;;;;;;;6.60;2.30;;;;;;;23.07;28.93;100227.54;105597;1293;60476;-80
2024/02/05 11:03:12;;;;;;;9.60;2.40;;;;;;;23.07;28.79;100232.20;105348;1290;60421;-80
2024/02/05 11:05:38;;;;;;;7.90;2.60;;;;;;;23.04;29.00;100216.30;105223;1288;71527;-80
2024/02/05 11:08:19;;;;;;;21.10;2.90;;;;;;;23.03;29.32;100215.39;104906;1294;59335;-81
2024/02/05 11:10:45;;;;;;;6.40;2.60;;;;;;;22.95;29.27;100222.31;105701;1292;58970;-80
2024/02/05 11:13:22;;;;;;;14.30;3.00;;;;;;;22.89;29.31;100220.52;105682;1291;58665;-80
2024/02/05 11:15:49;;;;;;;11.70;2.60;;;;;;;22.85;29.54;100221.73;105787;1295;72689;-80
2024/02/05 11:18:18;;;;;;;8.10;2.70;;;;;;;22.86;29.68;100217.56;105747;1293;58807;-81
2024/02/05 11:20:44;;;;;;;9.60;3.40;;;;;;;22.88;29.70;100214.31;105779;1293;60331;-80
2024/02/05 11:23:10;;;;;;;8.30;2.60;;;;;;;22.90;29.92;100215.88;105898;1292;58148;-79